createdAt,value
2022-11-03T00:01:17.074Z,14.25
2022-11-03T00:03:45.372Z,14.27
2022-11-03T00:06:15.139Z,14.24
2022-11-03T00:08:44.113Z,14.19
2022-11-03T00:11:14.902Z,14.13
2022-11-03T00:13:44.479Z,14.23
2022-11-03T00:16:14.135Z,13.99
2022-11-03T00:18:42.349Z,14.27
2022-11-03T00:21:12.887Z,14.35
2022-11-03T00:23:44.589Z,14.31
2022-11-03T00:26:15.574Z,14.28
2022-11-03T00:28:45.370Z,14.28
2022-11-03T00:31:15.935Z,14.34
2022-11-03T00:33:44.551Z,14.36
2022-11-03T00:36:14.934Z,14.21
2022-11-03T00:38:45.394Z,14.32
2022-11-03T00:41:14.445Z,14.27
2022-11-03T00:43:43.209Z,14.21
2022-11-03T00:46:11.947Z,14.16
2022-11-03T00:48:40.456Z,14.15
2022-11-03T00:51:10.927Z,12.28
2022-11-03T00:53:40.512Z,13.72
2022-11-03T00:56:14.252Z,13.70
2022-11-03T00:58:43.548Z,14.06
2022-11-03T01:01:13.404Z,14.14
2022-11-03T01:04:05.131Z,14.16
2022-11-03T01:06:51.614Z,14.16
2022-11-03T01:09:21.679Z,13.39
2022-11-03T01:11:58.049Z,14.15
2022-11-03T01:14:27.885Z,14.08
2022-11-03T01:16:56.414Z,14.16
2022-11-03T01:19:25.539Z,13.63
2022-11-03T01:21:53.993Z,14.20
2022-11-03T01:24:22.744Z,14.20
2022-11-03T01:26:52.637Z,14.16
2022-11-03T01:29:21.079Z,14.17
2022-11-03T01:31:49.368Z,14.19
2022-11-03T01:34:18.956Z,14.24
2022-11-03T01:36:48.218Z,14.22
2022-11-03T01:39:18.595Z,14.19
2022-11-03T01:41:48.993Z,14.16
2022-11-03T01:44:36.408Z,14.09
2022-11-03T01:47:13.232Z,14.19
2022-11-03T01:49:46.487Z,14.09
2022-11-03T01:52:22.003Z,14.18
2022-11-03T01:54:53.247Z,14.17
2022-11-03T01:57:26.737Z,14.21
2022-11-03T01:59:59.294Z,14.32
2022-11-03T02:02:28.854Z,14.26
2022-11-03T02:05:00.413Z,14.02
2022-11-03T02:07:35.120Z,14.07
2022-11-03T02:10:03.755Z,14.06
2022-11-03T02:12:33.586Z,14.18
2022-11-03T02:15:08.353Z,14.17
2022-11-03T02:17:38.724Z,14.23
2022-11-03T02:20:11.419Z,14.21
2022-11-03T02:23:01.509Z,14.21
2022-11-03T02:25:43.083Z,14.26
2022-11-03T02:28:13.367Z,14.21
2022-11-03T02:30:46.114Z,14.14
2022-11-03T02:33:32.482Z,14.14
2022-11-03T02:36:06.788Z,13.60
2022-11-03T02:38:39.713Z,14.00
2022-11-03T02:41:10.674Z,14.03
2022-11-03T02:43:40.148Z,14.08
2022-11-03T02:46:09.433Z,14.02
2022-11-03T02:48:38.046Z,14.01
2022-11-03T02:51:06.450Z,14.02
2022-11-03T02:53:41.034Z,14.00
2022-11-03T02:56:15.461Z,14.09
2022-11-03T02:58:50.825Z,14.12
2022-11-03T03:01:24.476Z,14.13
2022-11-03T03:03:57.064Z,14.05
2022-11-03T03:06:30.596Z,14.00
2022-11-03T03:09:02.999Z,13.91
2022-11-03T03:11:39.206Z,13.87
2022-11-03T03:14:13.738Z,13.72
2022-11-03T03:16:49.595Z,13.85
2022-11-03T03:19:24.562Z,13.83
2022-11-03T03:21:55.877Z,13.93
2022-11-03T03:24:32.814Z,13.87
2022-11-03T03:27:05.257Z,13.77
2022-11-03T03:29:39.285Z,13.71
2022-11-03T03:32:11.581Z,13.66
2022-11-03T03:34:43.178Z,13.60
2022-11-03T03:37:14.676Z,13.62
2022-11-03T03:39:47.260Z,13.60
2022-11-03T03:42:18.283Z,13.31
2022-11-03T03:44:48.146Z,13.49
2022-11-03T03:47:20.697Z,13.43
2022-11-03T03:49:49.049Z,13.42
2022-11-03T03:52:17.894Z,13.41
2022-11-03T03:54:46.319Z,13.32
2022-11-03T03:57:18.555Z,13.06
2022-11-03T03:59:48.107Z,13.29
2022-11-03T04:02:17.336Z,13.28
2022-11-03T04:04:45.684Z,13.26
2022-11-03T04:07:31.167Z,13.23
2022-11-03T04:09:59.344Z,13.29
2022-11-03T04:12:46.096Z,13.28
2022-11-03T04:15:32.173Z,13.31
2022-11-03T04:18:17.661Z,13.37
2022-11-03T04:21:03.088Z,13.38
2022-11-03T04:23:31.363Z,13.42
2022-11-03T04:26:00.613Z,13.31
2022-11-03T04:28:30.737Z,13.34
2022-11-03T04:31:00.824Z,13.45
2022-11-03T04:33:31.034Z,13.54
2022-11-03T04:36:00.677Z,13.50
2022-11-03T04:38:30.636Z,13.46
2022-11-03T04:41:00.251Z,13.42
2022-11-03T04:43:36.045Z,13.42
2022-11-03T04:46:04.337Z,13.37
2022-11-03T04:48:32.778Z,13.36
2022-11-03T04:51:03.959Z,13.41
2022-11-03T04:53:34.450Z,13.33
2022-11-03T04:56:07.229Z,13.39
2022-11-03T04:58:37.853Z,13.44
2022-11-03T05:01:11.463Z,13.40
2022-11-03T05:03:42.308Z,13.34
2022-11-03T05:06:14.073Z,13.33
2022-11-03T05:08:43.175Z,13.32
2022-11-03T05:11:18.636Z,13.33
2022-11-03T05:13:48.707Z,12.89
2022-11-03T05:16:17.997Z,12.94
2022-11-03T05:18:49.946Z,13.29
2022-11-03T05:21:20.663Z,13.30
2022-11-03T05:23:52.018Z,13.17
2022-11-03T05:26:24.335Z,13.30
2022-11-03T05:28:56.613Z,13.26
2022-11-03T05:31:29.068Z,13.17
2022-11-03T05:33:59.866Z,13.26
2022-11-03T05:36:30.674Z,13.23
2022-11-03T05:39:06.779Z,12.55
2022-11-03T05:41:37.004Z,13.20
2022-11-03T05:44:23.561Z,13.30
2022-11-03T05:46:52.145Z,13.22
2022-11-03T05:49:20.543Z,13.03
2022-11-03T05:51:48.884Z,13.26
2022-11-03T05:54:22.167Z,13.23
2022-11-03T05:56:51.254Z,13.19
2022-11-03T05:59:26.221Z,13.18
2022-11-03T06:01:55.331Z,13.15
2022-11-03T06:04:28.236Z,13.07
2022-11-03T06:07:03.114Z,13.12
2022-11-03T06:09:34.874Z,13.04
2022-11-03T06:12:06.964Z,13.11
2022-11-03T06:14:38.714Z,12.89
2022-11-03T06:17:08.814Z,13.15
2022-11-03T06:19:40.037Z,13.23
2022-11-03T06:22:15.183Z,13.18
2022-11-03T06:24:43.854Z,13.12
2022-11-03T06:27:15.754Z,13.12
2022-11-03T06:29:51.515Z,13.11
2022-11-03T06:32:20.188Z,13.13
2022-11-03T06:34:51.301Z,13.06
2022-11-03T06:37:25.786Z,12.99
2022-11-03T06:40:02.079Z,13.26
2022-11-03T06:42:33.685Z,13.42
2022-11-03T06:45:13.964Z,13.26
2022-11-03T06:47:42.599Z,13.19
2022-11-03T06:50:23.975Z,13.17
2022-11-03T06:53:01.204Z,12.80
2022-11-03T06:55:31.575Z,13.35
2022-11-03T06:58:01.947Z,13.35
2022-11-03T07:00:34.690Z,13.36
2022-11-03T07:03:10.420Z,13.43
2022-11-03T07:05:40.527Z,13.49
2022-11-03T07:08:22.543Z,13.52
2022-11-03T07:10:52.035Z,13.66
2022-11-03T07:13:29.258Z,13.72
2022-11-03T07:15:59.314Z,13.68
2022-11-03T07:18:31.459Z,13.91
2022-11-03T07:21:00.370Z,13.84
2022-11-03T07:23:32.161Z,13.75
2022-11-03T07:26:02.798Z,13.77
2022-11-03T07:28:37.186Z,13.87
2022-11-03T07:31:16.639Z,13.92
2022-11-03T07:33:45.307Z,13.92
2022-11-03T07:36:18.161Z,13.95
2022-11-03T07:38:51.547Z,14.00
2022-11-03T07:41:22.344Z,13.93
2022-11-03T07:43:58.256Z,14.11
2022-11-03T07:46:28.666Z,14.19
2022-11-03T07:48:58.931Z,14.30
2022-11-03T07:51:31.035Z,14.16
2022-11-03T07:54:05.165Z,14.51
2022-11-03T07:56:37.114Z,14.47
2022-11-03T07:59:15.270Z,14.54
2022-11-03T08:01:47.580Z,14.79
2022-11-03T08:04:20.488Z,14.93
2022-11-03T08:06:49.529Z,15.15
2022-11-03T08:09:17.794Z,15.22
2022-11-03T08:11:47.247Z,15.07
2022-11-03T08:14:15.546Z,14.98
2022-11-03T08:16:45.248Z,15.21
2022-11-03T08:19:13.517Z,15.14
2022-11-03T08:21:41.927Z,15.08
2022-11-03T08:24:10.237Z,15.13
2022-11-03T08:26:38.549Z,15.19
2022-11-03T08:29:06.845Z,15.30
2022-11-03T08:31:35.137Z,15.34
2022-11-03T08:34:04.954Z,15.56
2022-11-03T08:36:33.205Z,15.57
2022-11-03T08:39:01.503Z,15.53
2022-11-03T08:41:29.859Z,15.56
2022-11-03T08:43:58.452Z,15.66
2022-11-03T08:46:26.686Z,15.55
2022-11-03T08:48:55.039Z,15.73
2022-11-03T08:51:24.725Z,15.96
2022-11-03T08:53:54.264Z,15.96
2022-11-03T08:56:22.965Z,16.08
2022-11-03T08:58:51.449Z,14.56
2022-11-03T09:01:19.731Z,16.04
2022-11-03T09:03:48.533Z,16.07
2022-11-03T09:06:16.972Z,16.05
2022-11-03T09:11:34.914Z,15.97
2022-11-03T09:14:03.331Z,15.77
2022-11-03T09:16:31.598Z,15.72
2022-11-03T09:18:59.807Z,15.70
2022-11-03T09:21:28.037Z,15.63
2022-11-03T09:23:59.584Z,15.69
2022-11-03T09:26:28.149Z,15.79
2022-11-03T09:28:56.409Z,15.83
2022-11-03T09:31:26.207Z,15.70
2022-11-03T09:33:54.407Z,15.61
2022-11-03T09:36:22.629Z,15.70
2022-11-03T09:38:51.046Z,15.70
2022-11-03T09:41:27.599Z,15.73
2022-11-03T09:43:58.834Z,15.81
2022-11-03T09:46:28.219Z,15.82
2022-11-03T09:48:57.055Z,15.92
2022-11-03T09:51:28.624Z,15.98
2022-11-03T09:53:59.744Z,15.85
2022-11-03T09:56:29.638Z,15.93
2022-11-03T09:58:57.940Z,15.93
2022-11-03T10:01:26.362Z,15.88
2022-11-03T10:04:00.935Z,15.89
2022-11-03T10:06:29.164Z,15.82
2022-11-03T10:08:57.608Z,15.64
2022-11-03T10:11:25.896Z,15.88
2022-11-03T10:13:57.751Z,15.98
2022-11-03T10:16:27.714Z,15.91
2022-11-03T10:18:56.368Z,16.05
2022-11-03T10:21:29.009Z,16.04
2022-11-03T10:23:57.418Z,16.14
2022-11-03T10:26:25.654Z,16.17
2022-11-03T10:29:04.509Z,16.24
2022-11-03T10:31:34.945Z,16.32
2022-11-03T10:34:03.754Z,16.34
2022-11-03T10:36:33.459Z,16.07
2022-11-03T10:39:21.880Z,16.33
2022-11-03T10:41:57.816Z,16.18
2022-11-03T10:44:29.325Z,16.19
2022-11-03T10:46:59.237Z,16.31
2022-11-03T10:49:29.680Z,16.38
2022-11-03T10:52:17.916Z,16.25
2022-11-03T10:54:46.234Z,16.27
2022-11-03T10:57:14.920Z,16.01
2022-11-03T10:59:47.284Z,16.19
2022-11-03T11:02:19.542Z,16.27
2022-11-03T11:04:49.795Z,16.37
2022-11-03T11:07:23.513Z,16.44
2022-11-03T11:09:52.316Z,16.33
2022-11-03T11:12:23.939Z,16.38
2022-11-03T11:15:01.529Z,16.58
2022-11-03T11:17:48.163Z,16.74
2022-11-03T11:20:37.667Z,16.84
2022-11-03T11:23:53.020Z,17.35
2022-11-03T11:26:42.359Z,17.59
2022-11-03T11:29:41.027Z,17.91
2022-11-03T11:32:42.481Z,18.02
2022-11-03T11:35:16.745Z,17.84
2022-11-03T11:37:45.599Z,17.53
2022-11-03T11:40:16.041Z,17.37
2022-11-03T11:43:23.824Z,17.43
2022-11-03T11:46:35.114Z,17.63
2022-11-03T11:49:17.789Z,17.88
2022-11-03T11:51:48.171Z,17.91
2022-11-03T11:54:20.595Z,17.86
2022-11-03T11:56:51.325Z,17.95
2022-11-03T11:59:25.820Z,18.13
2022-11-03T12:01:56.747Z,17.71
2022-11-03T12:04:29.365Z,18.22
2022-11-03T12:06:59.065Z,18.24
2022-11-03T12:09:28.599Z,18.25
2022-11-03T12:12:00.663Z,18.27
2022-11-03T12:14:36.073Z,18.29
2022-11-03T12:17:35.354Z,18.19
2022-11-03T12:20:35.908Z,17.71
2022-11-03T12:23:05.716Z,17.83
2022-11-03T12:25:37.160Z,18.01
2022-11-03T12:28:05.730Z,17.96
2022-11-03T12:30:39.412Z,17.69
2022-11-03T12:33:08.347Z,17.58
2022-11-03T12:35:36.889Z,17.36
2022-11-03T12:38:06.568Z,17.16
2022-11-03T12:40:34.795Z,17.01
2022-11-03T12:43:03.127Z,17.05
2022-11-03T12:45:31.376Z,16.92
2022-11-03T12:47:59.647Z,16.84
2022-11-03T12:50:28.045Z,16.65
2022-11-03T12:52:56.335Z,16.46
2022-11-03T12:57:59.243Z,16.28
2022-11-03T13:00:27.529Z,16.45
2022-11-03T13:02:55.932Z,16.38
2022-11-03T13:05:25.588Z,16.48
2022-11-03T13:07:54.369Z,16.15
2022-11-03T13:10:22.600Z,16.61
2022-11-03T13:12:52.339Z,16.86
2022-11-03T13:15:20.588Z,16.91
2022-11-03T13:18:12.187Z,17.09
2022-11-03T13:20:37.869Z,18.34
2022-11-03T13:23:07.141Z,19.73
2022-11-03T13:25:35.584Z,20.83
2022-11-03T13:28:05.575Z,22.04
2022-11-03T13:30:34.776Z,22.53
2022-11-03T13:33:02.997Z,22.81
2022-11-03T13:35:31.310Z,23.04
2022-11-03T13:37:59.552Z,23.35
2022-11-03T13:40:57.161Z,23.08
2022-11-03T13:43:17.623Z,21.97
2022-11-03T13:45:46.665Z,20.99
2022-11-03T13:51:03.708Z,19.33
2022-11-03T13:56:22.220Z,18.25
2022-11-03T14:01:41.693Z,17.75
2022-11-03T14:06:59.359Z,17.42
2022-11-03T14:09:27.681Z,17.23
2022-11-03T14:12:13.441Z,17.25
2022-11-03T14:14:43.574Z,17.20
2022-11-03T14:17:12.447Z,16.99
2022-11-03T14:19:45.967Z,16.84
2022-11-03T14:22:17.035Z,16.95
2022-11-03T14:24:45.363Z,17.04
2022-11-03T14:27:15.886Z,16.95
2022-11-03T14:29:46.329Z,16.86
2022-11-03T14:32:14.573Z,16.75
2022-11-03T14:34:43.878Z,16.64
2022-11-03T14:37:13.049Z,16.59
2022-11-03T14:39:41.771Z,16.49
2022-11-03T14:42:15.481Z,16.54
2022-11-03T14:44:47.338Z,16.42
2022-11-03T14:47:17.766Z,16.45
2022-11-03T14:49:47.142Z,16.48
2022-11-03T14:52:16.428Z,16.36
2022-11-03T14:54:44.797Z,16.26
2022-11-03T14:57:13.074Z,16.33
2022-11-03T14:59:41.919Z,15.51
2022-11-03T15:02:11.973Z,16.22
2022-11-03T15:04:40.273Z,16.10
2022-11-03T15:07:08.559Z,16.18
2022-11-03T15:09:36.774Z,16.13
2022-11-03T15:12:05.343Z,16.08
2022-11-03T15:14:33.979Z,16.02
2022-11-03T15:17:02.226Z,15.80
2022-11-03T15:19:31.898Z,15.95
2022-11-03T15:22:00.164Z,15.88
2022-11-03T15:27:16.695Z,15.63
2022-11-03T15:29:45.074Z,15.65
2022-11-03T15:32:13.337Z,15.58
2022-11-03T15:34:43.095Z,15.61
2022-11-03T15:37:11.383Z,15.54
2022-11-03T15:39:39.755Z,15.39
2022-11-03T15:42:08.024Z,15.39
2022-11-03T15:44:36.334Z,15.36
2022-11-03T15:47:04.648Z,15.25
2022-11-03T15:49:33.129Z,15.26
2022-11-03T15:52:02.910Z,15.22
2022-11-03T15:54:31.145Z,15.21
2022-11-03T15:56:59.553Z,15.19
2022-11-03T15:59:27.939Z,15.05
2022-11-03T16:02:08.396Z,14.92
2022-11-03T16:04:44.953Z,14.91
2022-11-03T16:07:14.695Z,14.93
2022-11-03T16:09:43.187Z,14.90
2022-11-03T16:12:11.450Z,14.88
2022-11-03T16:14:40.006Z,14.84
2022-11-03T16:17:08.319Z,14.79
2022-11-03T16:19:36.590Z,14.78
2022-11-03T16:22:05.075Z,14.50
2022-11-03T16:24:35.643Z,14.69
2022-11-03T16:27:05.004Z,14.68
2022-11-03T16:29:33.318Z,14.65
2022-11-03T16:32:01.573Z,14.59
2022-11-03T16:34:30.135Z,14.39
2022-11-03T16:36:58.688Z,14.45
2022-11-03T16:39:27.029Z,14.41
2022-11-03T16:41:57.110Z,14.50
2022-11-03T16:44:26.050Z,14.54
2022-11-03T16:46:54.664Z,14.51
2022-11-03T16:49:23.520Z,14.32
2022-11-03T16:51:52.395Z,14.39
2022-11-03T16:54:21.929Z,14.28
2022-11-03T16:56:54.476Z,14.21
2022-11-03T16:59:26.711Z,14.29
2022-11-03T17:01:57.129Z,14.29
2022-11-03T17:04:26.724Z,14.24
2022-11-03T17:06:55.389Z,14.24
2022-11-03T17:09:23.635Z,14.23
2022-11-03T17:11:51.895Z,14.24
2022-11-03T17:14:20.742Z,14.20
2022-11-03T17:16:51.345Z,14.16
2022-11-03T17:19:20.011Z,13.57
2022-11-03T17:21:48.551Z,14.06
2022-11-03T17:24:17.545Z,14.09
2022-11-03T17:26:56.214Z,14.09
2022-11-03T17:29:30.824Z,14.08
2022-11-03T17:32:00.676Z,14.00
2022-11-03T17:34:29.363Z,13.81
2022-11-03T17:36:59.176Z,13.73
2022-11-03T17:39:33.775Z,13.78
2022-11-03T17:42:14.899Z,13.79
2022-11-03T17:44:43.645Z,13.79
2022-11-03T17:47:15.299Z,13.73
2022-11-03T17:49:44.763Z,13.70
2022-11-03T17:52:16.254Z,13.69
2022-11-03T17:54:45.345Z,13.70
2022-11-03T17:57:18.394Z,13.60
2022-11-03T17:59:51.140Z,13.55
2022-11-03T18:02:24.536Z,13.62
2022-11-03T18:05:00.249Z,13.76
2022-11-03T18:07:31.124Z,13.69
2022-11-03T18:10:00.307Z,13.64
2022-11-03T18:12:54.356Z,13.54
2022-11-03T18:15:26.265Z,13.43
2022-11-03T18:17:57.847Z,13.42
2022-11-03T18:20:29.530Z,13.49
2022-11-03T18:23:11.963Z,13.37
2022-11-03T18:25:41.105Z,13.34
2022-11-03T18:28:11.666Z,13.07
2022-11-03T18:30:44.254Z,13.14
2022-11-03T18:33:20.454Z,13.20
2022-11-03T18:35:50.451Z,13.21
2022-11-03T18:38:19.925Z,13.16
2022-11-03T18:40:49.733Z,13.12
2022-11-03T18:43:21.740Z,12.92
2022-11-03T18:45:52.957Z,13.12
2022-11-03T18:48:24.559Z,13.07
2022-11-03T18:50:56.819Z,12.99
2022-11-03T18:53:29.533Z,13.02
2022-11-03T18:56:01.986Z,12.88
2022-11-03T18:58:31.374Z,12.96
2022-11-03T19:01:01.222Z,12.98
2022-11-03T19:03:32.681Z,13.00
2022-11-03T19:06:02.710Z,12.90
2022-11-03T19:08:36.801Z,12.62
2022-11-03T19:11:06.675Z,12.98
2022-11-03T19:13:38.945Z,12.94
2022-11-03T19:16:17.449Z,12.92
2022-11-03T19:18:48.953Z,12.89
2022-11-03T19:21:19.797Z,12.99
2022-11-03T19:23:51.923Z,12.96
2022-11-03T19:26:31.498Z,12.87
2022-11-03T19:29:06.984Z,12.79
2022-11-03T19:31:40.318Z,12.87
2022-11-03T19:34:16.633Z,12.81
2022-11-03T19:36:48.969Z,12.87
2022-11-03T19:39:27.872Z,12.28
2022-11-03T19:42:15.226Z,12.78
2022-11-03T19:44:44.864Z,12.67
2022-11-03T19:47:18.924Z,12.71
2022-11-03T19:49:50.498Z,12.66
2022-11-03T19:52:22.230Z,12.78
2022-11-03T19:54:53.457Z,12.84
2022-11-03T19:57:22.933Z,12.91
2022-11-03T19:59:55.154Z,12.73
2022-11-03T20:02:24.812Z,12.56
2022-11-03T20:04:56.644Z,12.10
2022-11-03T20:07:31.606Z,12.62
2022-11-03T20:10:08.639Z,12.46
2022-11-03T20:12:38.239Z,12.71
2022-11-03T20:15:16.863Z,12.41
2022-11-03T20:17:47.516Z,12.15
2022-11-03T20:20:21.542Z,12.53
2022-11-03T20:22:53.613Z,12.66
2022-11-03T20:25:27.425Z,12.69
2022-11-03T20:27:58.708Z,12.55
2022-11-03T20:30:30.253Z,12.63
2022-11-03T20:32:59.863Z,12.79
2022-11-03T20:35:32.644Z,12.77
2022-11-03T20:38:02.329Z,12.56
2022-11-03T20:40:33.939Z,12.24
2022-11-03T20:43:08.041Z,12.55
2022-11-03T20:45:38.824Z,12.53
2022-11-03T20:48:13.241Z,12.52
2022-11-03T20:50:44.269Z,12.41
2022-11-03T20:53:17.057Z,12.50
2022-11-03T20:55:47.648Z,12.51
2022-11-03T20:58:19.159Z,12.48
2022-11-03T21:00:49.658Z,12.51
2022-11-03T21:03:37.961Z,12.43
2022-11-03T21:06:11.704Z,12.37
2022-11-03T21:08:41.147Z,12.47
2022-11-03T21:11:27.921Z,12.47
2022-11-03T21:14:00.343Z,12.30
2022-11-03T21:16:47.941Z,12.32
2022-11-03T21:19:35.515Z,12.35
2022-11-03T21:22:30.734Z,12.41
2022-11-03T21:25:02.557Z,12.27
2022-11-03T21:27:31.433Z,12.24
2022-11-03T21:30:00.633Z,12.24
2022-11-03T21:32:29.427Z,12.21
2022-11-03T21:34:58.893Z,12.18
2022-11-03T21:37:28.610Z,12.07
2022-11-03T21:39:57.377Z,12.03
2022-11-03T21:42:43.185Z,12.06
2022-11-03T21:45:12.818Z,12.07
2022-11-03T21:48:01.168Z,12.09
2022-11-03T21:50:28.379Z,12.04
2022-11-03T21:52:59.019Z,11.93
2022-11-03T21:55:28.634Z,12.02
2022-11-03T21:57:56.885Z,11.83
2022-11-03T22:00:25.155Z,11.98
2022-11-03T22:02:53.436Z,12.00
2022-11-03T22:05:21.737Z,12.03
2022-11-03T22:07:50.003Z,12.02
2022-11-03T22:10:19.805Z,12.12
2022-11-03T22:12:48.025Z,12.05
2022-11-03T22:15:33.527Z,11.98
2022-11-03T22:18:02.171Z,11.90
2022-11-03T22:20:48.047Z,11.18
2022-11-03T22:23:34.299Z,11.91
2022-11-03T22:26:21.693Z,11.95
2022-11-03T22:29:09.973Z,11.77
2022-11-03T22:31:43.093Z,11.89
2022-11-03T22:34:28.762Z,11.78
2022-11-03T22:36:57.212Z,12.07
2022-11-03T22:39:42.948Z,11.80
2022-11-03T22:42:31.554Z,11.93
2022-11-03T22:45:17.014Z,12.02
2022-11-03T22:47:45.318Z,11.85
2022-11-03T22:50:13.569Z,11.63
2022-11-03T22:52:41.775Z,11.80
2022-11-03T22:55:09.255Z,11.83
2022-11-03T22:57:38.949Z,11.78
2022-11-03T23:00:08.094Z,11.78
2022-11-03T23:02:36.414Z,11.80
2022-11-03T23:05:04.991Z,11.82
2022-11-03T23:07:38.415Z,11.71
2022-11-03T23:10:10.191Z,11.76
2022-11-03T23:12:39.880Z,11.69
2022-11-03T23:15:26.722Z,11.74
2022-11-03T23:18:12.296Z,11.58
2022-11-03T23:20:57.803Z,11.76
2022-11-03T23:23:43.258Z,11.55
2022-11-03T23:26:11.815Z,11.49
2022-11-03T23:28:41.957Z,11.60
2022-11-03T23:31:10.614Z,11.23
2022-11-03T23:33:39.585Z,11.70
2022-11-03T23:36:10.089Z,11.70
2022-11-03T23:38:39.413Z,11.70
2022-11-03T23:41:09.434Z,11.67
2022-11-03T23:43:37.855Z,11.62
2022-11-03T23:46:36.675Z,11.62
2022-11-03T23:49:05.505Z,11.57
2022-11-03T23:51:35.098Z,11.76
2022-11-03T23:54:04.499Z,11.81
2022-11-03T23:56:54.257Z,11.77
2022-11-03T23:59:22.820Z,11.65
